Mc Clellan-Palomar Airport Carlsbad US
ICAO: KCRQ
IATA: CRQ
Category: Medium
Scheduled Services: No

Elevation: 331 ft
TransAlt. 18000 ft.

Airport Communications:
SOCAL APP/DEP:127.3
ATIS:120.15
CLNC DEL:134.85
CTAF:118.6
GND:121.8
SAN DIEGO RDO:115.3
TWR:118.6

KCRQ Zoom In..

If you have problems with the map follow the link
https://www.worldairports.se/pages/airport.php?
ICAO=KCRQ

Runways:

(A) RW 06 length 4897 ft width 150 ft
---- / hdg 65

(B) RW 24 length 4897 ft width 150 ft
ILS 108.70 / hdg 245

Location; KCRQ
Day. 18 / Time. 01.53 Zulu
* Altimeter: 29.99
* Temperature: 12° c. 53.6°f.
* Wind from: 270° Speed 11 kn with Gusts up to 20 kn.
Dewpoint: 06° c.
Visibility: 10 Statute Miles.
Clouds: Few 3400 ft.
Clouds: Overcast 4800 ft.

KCRQ 180153Z AUTO 27011G20KT 10SM FEW034 OVC048 12/06 A2999 RMK AO2 SLP154 T01220061


Wind From 270°
Speed 11 kn.

 
 
jpsmedia.com for Web Design worldairports.se 2019   terms of use